sensor_id;sensor_type;location;lat;lon;timestamp;P1;durP1;ratioP1;P2;durP2;ratioP2
48727;SDS011;34527;45.618;5.130;2024-01-15T00:02:24;106.03;;;55.15;;
48727;SDS011;34527;45.618;5.130;2024-01-15T00:04:49;109.70;;;54.13;;
48727;SDS011;34527;45.618;5.130;2024-01-15T00:07:15;102.93;;;48.88;;
48727;SDS011;34527;45.618;5.130;2024-01-15T00:09:40;84.55;;;44.80;;
48727;SDS011;34527;45.618;5.130;2024-01-15T00:12:06;86.25;;;45.33;;
48727;SDS011;34527;45.618;5.130;2024-01-15T00:14:32;130.52;;;58.97;;
48727;SDS011;34527;45.618;5.130;2024-01-15T00:16:57;98.00;;;49.45;;
48727;SDS011;34527;45.618;5.130;2024-01-15T00:19:23;93.47;;;46.15;;
48727;SDS011;34527;45.618;5.130;2024-01-15T00:21:49;91.43;;;44.92;;
48727;SDS011;34527;45.618;5.130;2024-01-15T00:24:15;90.85;;;45.35;;
48727;SDS011;34527;45.618;5.130;2024-01-15T00:26:41;95.00;;;47.58;;
48727;SDS011;34527;45.618;5.130;2024-01-15T00:29:07;74.95;;;40.13;;
48727;SDS011;34527;45.618;5.130;2024-01-15T00:31:34;63.85;;;34.78;;
48727;SDS011;34527;45.618;5.130;2024-01-15T00:33:59;63.10;;;34.92;;
48727;SDS011;34527;45.618;5.130;2024-01-15T00:36:25;68.03;;;35.13;;
48727;SDS011;34527;45.618;5.130;2024-01-15T00:38:51;83.50;;;42.90;;
48727;SDS011;34527;45.618;5.130;2024-01-15T00:41:17;68.82;;;36.25;;
48727;SDS011;34527;45.618;5.130;2024-01-15T00:43:44;74.18;;;39.10;;
48727;SDS011;34527;45.618;5.130;2024-01-15T00:46:10;75.53;;;40.42;;
48727;SDS011;34527;45.618;5.130;2024-01-15T00:48:36;79.30;;;42.65;;
48727;SDS011;34527;45.618;5.130;2024-01-15T00:51:02;92.45;;;48.60;;
48727;SDS011;34527;45.618;5.130;2024-01-15T00:53:29;66.00;;;33.83;;
48727;SDS011;34527;45.618;5.130;2024-01-15T00:55:55;65.10;;;36.03;;
48727;SDS011;34527;45.618;5.130;2024-01-15T00:58:20;65.28;;;34.80;;
48727;SDS011;34527;45.618;5.130;2024-01-15T01:00:46;66.15;;;34.40;;
48727;SDS011;34527;45.618;5.130;2024-01-15T01:03:12;56.00;;;32.88;;
48727;SDS011;34527;45.618;5.130;2024-01-15T01:05:37;60.05;;;32.00;;
48727;SDS011;34527;45.618;5.130;2024-01-15T01:08:03;68.88;;;33.30;;
48727;SDS011;34527;45.618;5.130;2024-01-15T01:10:29;62.35;;;33.47;;
48727;SDS011;34527;45.618;5.130;2024-01-15T01:12:55;59.47;;;33.05;;
48727;SDS011;34527;45.618;5.130;2024-01-15T01:15:20;62.88;;;33.33;;
48727;SDS011;34527;45.618;5.130;2024-01-15T01:17:46;66.60;;;33.40;;
48727;SDS011;34527;45.618;5.130;2024-01-15T01:20:12;61.28;;;33.65;;
48727;SDS011;34527;45.618;5.130;2024-01-15T01:22:37;63.35;;;33.13;;
48727;SDS011;34527;45.618;5.130;2024-01-15T01:25:04;61.67;;;33.97;;
48727;SDS011;34527;45.618;5.130;2024-01-15T01:27:30;61.10;;;33.78;;
48727;SDS011;34527;45.618;5.130;2024-01-15T01:29:55;59.70;;;33.22;;
48727;SDS011;34527;45.618;5.130;2024-01-15T01:32:21;64.63;;;34.90;;
48727;SDS011;34527;45.618;5.130;2024-01-15T01:34:46;59.58;;;32.45;;
48727;SDS011;34527;45.618;5.130;2024-01-15T01:37:12;62.78;;;32.70;;
48727;SDS011;34527;45.618;5.130;2024-01-15T01:39:41;67.10;;;32.70;;
48727;SDS011;34527;45.618;5.130;2024-01-15T01:42:07;58.03;;;31.25;;
48727;SDS011;34527;45.618;5.130;2024-01-15T01:44:33;60.25;;;31.98;;
48727;SDS011;34527;45.618;5.130;2024-01-15T01:46:59;58.60;;;31.92;;
48727;SDS011;34527;45.618;5.130;2024-01-15T01:49:26;58.03;;;31.40;;
48727;SDS011;34527;45.618;5.130;2024-01-15T01:51:52;59.75;;;30.90;;
48727;SDS011;34527;45.618;5.130;2024-01-15T01:54:18;55.15;;;30.35;;
48727;SDS011;34527;45.618;5.130;2024-01-15T01:56:45;56.97;;;29.10;;
48727;SDS011;34527;45.618;5.130;2024-01-15T01:59:13;55.03;;;28.80;;
48727;SDS011;34527;45.618;5.130;2024-01-15T02:01:39;55.42;;;30.08;;
48727;SDS011;34527;45.618;5.130;2024-01-15T02:04:06;52.83;;;29.33;;
48727;SDS011;34527;45.618;5.130;2024-01-15T02:06:33;54.47;;;29.65;;
48727;SDS011;34527;45.618;5.130;2024-01-15T02:08:59;55.10;;;30.42;;
48727;SDS011;34527;45.618;5.130;2024-01-15T02:11:37;49.78;;;28.58;;
48727;SDS011;34527;45.618;5.130;2024-01-15T02:14:03;56.40;;;29.90;;
48727;SDS011;34527;45.618;5.130;2024-01-15T02:16:28;60.85;;;31.60;;
48727;SDS011;34527;45.618;5.130;2024-01-15T02:18:54;78.03;;;38.17;;
48727;SDS011;34527;45.618;5.130;2024-01-15T02:21:19;77.20;;;36.28;;
48727;SDS011;34527;45.618;5.130;2024-01-15T02:23:45;87.05;;;40.38;;
48727;SDS011;34527;45.618;5.130;2024-01-15T02:26:11;79.22;;;36.70;;
48727;SDS011;34527;45.618;5.130;2024-01-15T02:28:37;64.47;;;32.80;;
48727;SDS011;34527;45.618;5.130;2024-01-15T02:31:03;75.70;;;36.50;;
48727;SDS011;34527;45.618;5.130;2024-01-15T02:33:28;88.00;;;41.13;;
48727;SDS011;34527;45.618;5.130;2024-01-15T02:35:54;71.95;;;36.17;;
48727;SDS011;34527;45.618;5.130;2024-01-15T02:38:20;70.45;;;33.60;;
48727;SDS011;34527;45.618;5.130;2024-01-15T02:40:45;64.05;;;32.60;;
48727;SDS011;34527;45.618;5.130;2024-01-15T02:43:11;59.58;;;31.25;;
48727;SDS011;34527;45.618;5.130;2024-01-15T02:45:38;65.10;;;33.13;;
48727;SDS011;34527;45.618;5.130;2024-01-15T02:48:04;56.90;;;30.98;;
48727;SDS011;34527;45.618;5.130;2024-01-15T02:50:30;63.50;;;32.60;;
48727;SDS011;34527;45.618;5.130;2024-01-15T02:52:56;51.20;;;27.95;;
48727;SDS011;34527;45.618;5.130;2024-01-15T02:55:21;51.63;;;28.25;;
48727;SDS011;34527;45.618;5.130;2024-01-15T02:57:47;55.13;;;27.90;;
48727;SDS011;34527;45.618;5.130;2024-01-15T03:00:13;53.20;;;29.15;;
48727;SDS011;34527;45.618;5.130;2024-01-15T03:02:39;51.53;;;27.90;;
48727;SDS011;34527;45.618;5.130;2024-01-15T03:05:05;51.90;;;29.42;;
48727;SDS011;34527;45.618;5.130;2024-01-15T03:07:32;50.63;;;28.35;;
48727;SDS011;34527;45.618;5.130;2024-01-15T03:09:58;47.78;;;27.70;;
48727;SDS011;34527;45.618;5.130;2024-01-15T03:12:24;50.78;;;28.05;;
48727;SDS011;34527;45.618;5.130;2024-01-15T03:14:49;48.08;;;26.00;;
48727;SDS011;34527;45.618;5.130;2024-01-15T03:17:15;46.33;;;26.73;;
48727;SDS011;34527;45.618;5.130;2024-01-15T03:19:40;50.22;;;27.27;;
48727;SDS011;34527;45.618;5.130;2024-01-15T03:22:06;44.10;;;26.27;;
48727;SDS011;34527;45.618;5.130;2024-01-15T03:24:34;54.40;;;28.35;;
48727;SDS011;34527;45.618;5.130;2024-01-15T03:27:00;52.88;;;26.27;;
48727;SDS011;34527;45.618;5.130;2024-01-15T03:29:25;51.20;;;25.65;;
48727;SDS011;34527;45.618;5.130;2024-01-15T03:31:51;46.72;;;26.23;;
48727;SDS011;34527;45.618;5.130;2024-01-15T03:34:17;46.72;;;26.27;;
48727;SDS011;34527;45.618;5.130;2024-01-15T03:36:43;48.78;;;26.92;;
48727;SDS011;34527;45.618;5.130;2024-01-15T03:39:09;47.08;;;26.77;;
48727;SDS011;34527;45.618;5.130;2024-01-15T03:41:34;44.65;;;26.05;;
48727;SDS011;34527;45.618;5.130;2024-01-15T03:44:00;51.30;;;28.33;;
48727;SDS011;34527;45.618;5.130;2024-01-15T03:46:26;50.38;;;26.77;;
48727;SDS011;34527;45.618;5.130;2024-01-15T03:48:52;46.95;;;26.15;;
48727;SDS011;34527;45.618;5.130;2024-01-15T03:51:18;45.53;;;26.25;;
48727;SDS011;34527;45.618;5.130;2024-01-15T03:53:43;51.92;;;27.73;;
48727;SDS011;34527;45.618;5.130;2024-01-15T03:56:09;46.88;;;26.52;;
48727;SDS011;34527;45.618;5.130;2024-01-15T03:58:35;48.50;;;27.08;;
48727;SDS011;34527;45.618;5.130;2024-01-15T04:01:00;49.30;;;27.38;;
48727;SDS011;34527;45.618;5.130;2024-01-15T04:03:26;45.97;;;26.45;;
48727;SDS011;34527;45.618;5.130;2024-01-15T04:05:52;50.17;;;26.75;;
48727;SDS011;34527;45.618;5.130;2024-01-15T04:08:17;46.58;;;26.45;;
48727;SDS011;34527;45.618;5.130;2024-01-15T04:10:43;47.72;;;27.27;;
48727;SDS011;34527;45.618;5.130;2024-01-15T04:13:08;47.92;;;27.77;;
48727;SDS011;34527;45.618;5.130;2024-01-15T04:15:34;49.00;;;27.60;;
48727;SDS011;34527;45.618;5.130;2024-01-15T04:18:01;50.33;;;27.88;;
48727;SDS011;34527;45.618;5.130;2024-01-15T04:20:27;51.15;;;26.70;;
48727;SDS011;34527;45.618;5.130;2024-01-15T04:22:53;51.13;;;27.35;;
48727;SDS011;34527;45.618;5.130;2024-01-15T04:25:18;47.80;;;26.77;;
48727;SDS011;34527;45.618;5.130;2024-01-15T04:27:44;50.42;;;27.17;;
48727;SDS011;34527;45.618;5.130;2024-01-15T04:30:10;46.15;;;25.88;;
48727;SDS011;34527;45.618;5.130;2024-01-15T04:32:35;49.13;;;26.55;;
48727;SDS011;34527;45.618;5.130;2024-01-15T04:35:01;49.83;;;27.33;;
48727;SDS011;34527;45.618;5.130;2024-01-15T04:37:27;46.38;;;27.13;;
48727;SDS011;34527;45.618;5.130;2024-01-15T04:39:52;49.65;;;26.38;;
48727;SDS011;34527;45.618;5.130;2024-01-15T04:42:20;47.53;;;26.30;;
48727;SDS011;34527;45.618;5.130;2024-01-15T04:44:46;51.30;;;27.42;;
48727;SDS011;34527;45.618;5.130;2024-01-15T04:47:12;47.08;;;28.00;;
48727;SDS011;34527;45.618;5.130;2024-01-15T04:49:37;46.58;;;25.42;;
48727;SDS011;34527;45.618;5.130;2024-01-15T04:52:03;45.80;;;26.35;;
48727;SDS011;34527;45.618;5.130;2024-01-15T04:54:28;44.03;;;25.63;;
48727;SDS011;34527;45.618;5.130;2024-01-15T04:56:54;47.88;;;25.90;;
48727;SDS011;34527;45.618;5.130;2024-01-15T04:59:20;48.45;;;26.25;;
48727;SDS011;34527;45.618;5.130;2024-01-15T05:01:45;44.38;;;26.08;;
48727;SDS011;34527;45.618;5.130;2024-01-15T05:04:11;50.65;;;27.63;;
48727;SDS011;34527;45.618;5.130;2024-01-15T05:06:36;51.83;;;28.00;;
48727;SDS011;34527;45.618;5.130;2024-01-15T05:09:02;50.45;;;26.35;;
48727;SDS011;34527;45.618;5.130;2024-01-15T05:11:29;51.30;;;27.20;;
48727;SDS011;34527;45.618;5.130;2024-01-15T05:13:54;49.13;;;28.00;;
48727;SDS011;34527;45.618;5.130;2024-01-15T05:16:20;45.05;;;26.85;;
48727;SDS011;34527;45.618;5.130;2024-01-15T05:18:46;47.95;;;27.23;;
48727;SDS011;34527;45.618;5.130;2024-01-15T05:21:11;50.63;;;29.17;;
48727;SDS011;34527;45.618;5.130;2024-01-15T05:23:37;49.20;;;27.30;;
48727;SDS011;34527;45.618;5.130;2024-01-15T05:26:03;49.80;;;27.13;;
48727;SDS011;34527;45.618;5.130;2024-01-15T05:28:29;53.20;;;28.48;;
48727;SDS011;34527;45.618;5.130;2024-01-15T05:30:55;48.90;;;28.08;;
48727;SDS011;34527;45.618;5.130;2024-01-15T05:33:23;50.92;;;28.92;;
48727;SDS011;34527;45.618;5.130;2024-01-15T05:35:49;48.75;;;27.73;;
48727;SDS011;34527;45.618;5.130;2024-01-15T05:38:15;55.25;;;28.85;;
48727;SDS011;34527;45.618;5.130;2024-01-15T05:40:41;52.70;;;30.23;;
48727;SDS011;34527;45.618;5.130;2024-01-15T05:43:07;51.97;;;30.00;;
48727;SDS011;34527;45.618;5.130;2024-01-15T05:45:34;55.50;;;29.88;;
48727;SDS011;34527;45.618;5.130;2024-01-15T05:48:00;50.13;;;29.77;;
48727;SDS011;34527;45.618;5.130;2024-01-15T05:50:26;49.72;;;29.25;;
48727;SDS011;34527;45.618;5.130;2024-01-15T05:52:52;57.45;;;29.27;;
48727;SDS011;34527;45.618;5.130;2024-01-15T05:55:17;56.50;;;30.27;;
48727;SDS011;34527;45.618;5.130;2024-01-15T05:57:43;59.05;;;31.08;;
48727;SDS011;34527;45.618;5.130;2024-01-15T06:00:09;58.45;;;32.00;;
48727;SDS011;34527;45.618;5.130;2024-01-15T06:02:37;55.90;;;31.48;;
48727;SDS011;34527;45.618;5.130;2024-01-15T06:05:03;53.17;;;30.40;;
48727;SDS011;34527;45.618;5.130;2024-01-15T06:07:29;59.88;;;31.67;;
48727;SDS011;34527;45.618;5.130;2024-01-15T06:09:55;55.20;;;31.17;;
48727;SDS011;34527;45.618;5.130;2024-01-15T06:12:22;60.53;;;31.40;;
48727;SDS011;34527;45.618;5.130;2024-01-15T06:14:48;54.42;;;30.38;;
48727;SDS011;34527;45.618;5.130;2024-01-15T06:17:13;58.78;;;30.92;;
48727;SDS011;34527;45.618;5.130;2024-01-15T06:19:39;62.13;;;33.33;;
48727;SDS011;34527;45.618;5.130;2024-01-15T06:22:05;62.35;;;33.38;;
48727;SDS011;34527;45.618;5.130;2024-01-15T06:24:30;61.53;;;34.03;;
48727;SDS011;34527;45.618;5.130;2024-01-15T06:26:56;62.00;;;33.13;;
48727;SDS011;34527;45.618;5.130;2024-01-15T06:29:22;65.15;;;36.03;;
48727;SDS011;34527;45.618;5.130;2024-01-15T06:31:50;61.35;;;34.38;;
48727;SDS011;34527;45.618;5.130;2024-01-15T06:34:15;63.03;;;35.08;;
48727;SDS011;34527;45.618;5.130;2024-01-15T06:36:41;68.63;;;34.88;;
48727;SDS011;34527;45.618;5.130;2024-01-15T06:39:07;62.67;;;34.30;;
48727;SDS011;34527;45.618;5.130;2024-01-15T06:41:32;65.18;;;36.13;;
48727;SDS011;34527;45.618;5.130;2024-01-15T06:43:58;63.25;;;33.88;;
48727;SDS011;34527;45.618;5.130;2024-01-15T06:46:24;59.08;;;33.83;;
48727;SDS011;34527;45.618;5.130;2024-01-15T06:48:49;67.90;;;36.15;;
48727;SDS011;34527;45.618;5.130;2024-01-15T06:51:15;63.33;;;35.40;;
48727;SDS011;34527;45.618;5.130;2024-01-15T06:53:41;65.63;;;34.92;;
48727;SDS011;34527;45.618;5.130;2024-01-15T06:56:07;62.13;;;33.58;;
48727;SDS011;34527;45.618;5.130;2024-01-15T06:58:33;63.70;;;35.55;;
48727;SDS011;34527;45.618;5.130;2024-01-15T07:00:59;72.95;;;36.95;;
48727;SDS011;34527;45.618;5.130;2024-01-15T07:03:24;65.68;;;34.92;;
48727;SDS011;34527;45.618;5.130;2024-01-15T07:05:50;69.43;;;36.47;;
48727;SDS011;34527;45.618;5.130;2024-01-15T07:08:16;69.00;;;35.58;;
48727;SDS011;34527;45.618;5.130;2024-01-15T07:10:41;64.80;;;35.63;;
48727;SDS011;34527;45.618;5.130;2024-01-15T07:13:07;61.47;;;34.75;;
48727;SDS011;34527;45.618;5.130;2024-01-15T07:15:32;69.22;;;36.53;;
48727;SDS011;34527;45.618;5.130;2024-01-15T07:17:58;74.53;;;38.67;;
48727;SDS011;34527;45.618;5.130;2024-01-15T07:20:24;74.25;;;38.42;;
48727;SDS011;34527;45.618;5.130;2024-01-15T07:22:49;70.60;;;36.80;;
48727;SDS011;34527;45.618;5.130;2024-01-15T07:25:15;66.38;;;37.53;;
48727;SDS011;34527;45.618;5.130;2024-01-15T07:27:41;67.13;;;38.38;;
48727;SDS011;34527;45.618;5.130;2024-01-15T07:30:09;74.28;;;38.92;;
48727;SDS011;34527;45.618;5.130;2024-01-15T07:32:36;72.40;;;38.08;;
48727;SDS011;34527;45.618;5.130;2024-01-15T07:35:02;74.53;;;39.03;;
48727;SDS011;34527;45.618;5.130;2024-01-15T07:37:28;74.07;;;39.80;;
48727;SDS011;34527;45.618;5.130;2024-01-15T07:39:54;71.30;;;38.72;;
48727;SDS011;34527;45.618;5.130;2024-01-15T07:42:19;71.57;;;37.92;;
48727;SDS011;34527;45.618;5.130;2024-01-15T07:44:45;71.93;;;39.20;;
48727;SDS011;34527;45.618;5.130;2024-01-15T07:47:10;65.85;;;38.03;;
48727;SDS011;34527;45.618;5.130;2024-01-15T07:49:36;61.78;;;35.90;;
48727;SDS011;34527;45.618;5.130;2024-01-15T07:52:02;64.85;;;36.83;;
48727;SDS011;34527;45.618;5.130;2024-01-15T07:54:29;71.93;;;37.80;;
48727;SDS011;34527;45.618;5.130;2024-01-15T07:59:22;66.72;;;37.50;;
48727;SDS011;34527;45.618;5.130;2024-01-15T08:01:47;65.32;;;37.95;;
48727;SDS011;34527;45.618;5.130;2024-01-15T08:04:13;67.18;;;38.70;;
48727;SDS011;34527;45.618;5.130;2024-01-15T08:06:39;73.00;;;39.80;;
48727;SDS011;34527;45.618;5.130;2024-01-15T08:09:04;75.00;;;38.80;;
48727;SDS011;34527;45.618;5.130;2024-01-15T08:11:30;71.82;;;38.85;;
48727;SDS011;34527;45.618;5.130;2024-01-15T08:13:56;78.75;;;42.10;;
48727;SDS011;34527;45.618;5.130;2024-01-15T08:16:21;78.40;;;42.17;;
48727;SDS011;34527;45.618;5.130;2024-01-15T08:18:49;74.60;;;41.58;;
48727;SDS011;34527;45.618;5.130;2024-01-15T08:21:15;76.40;;;44.05;;
48727;SDS011;34527;45.618;5.130;2024-01-15T08:23:40;82.68;;;45.13;;
48727;SDS011;34527;45.618;5.130;2024-01-15T08:26:06;82.30;;;43.10;;
48727;SDS011;34527;45.618;5.130;2024-01-15T08:28:32;71.03;;;40.97;;
48727;SDS011;34527;45.618;5.130;2024-01-15T08:30:58;73.15;;;39.97;;
48727;SDS011;34527;45.618;5.130;2024-01-15T08:33:23;76.30;;;40.83;;
48727;SDS011;34527;45.618;5.130;2024-01-15T08:35:49;70.18;;;39.65;;
48727;SDS011;34527;45.618;5.130;2024-01-15T08:38:14;73.10;;;38.47;;
48727;SDS011;34527;45.618;5.130;2024-01-15T08:40:40;71.38;;;39.30;;
48727;SDS011;34527;45.618;5.130;2024-01-15T08:43:06;74.13;;;38.65;;
48727;SDS011;34527;45.618;5.130;2024-01-15T08:45:31;68.95;;;36.80;;
48727;SDS011;34527;45.618;5.130;2024-01-15T08:47:58;73.40;;;38.97;;
48727;SDS011;34527;45.618;5.130;2024-01-15T08:50:23;75.25;;;39.22;;
48727;SDS011;34527;45.618;5.130;2024-01-15T08:52:49;71.43;;;37.97;;
48727;SDS011;34527;45.618;5.130;2024-01-15T08:55:14;72.38;;;38.28;;
48727;SDS011;34527;45.618;5.130;2024-01-15T08:57:40;75.15;;;38.00;;
48727;SDS011;34527;45.618;5.130;2024-01-15T09:00:06;81.97;;;42.22;;
48727;SDS011;34527;45.618;5.130;2024-01-15T09:02:34;67.78;;;39.28;;
48727;SDS011;34527;45.618;5.130;2024-01-15T09:05:01;74.43;;;41.20;;
48727;SDS011;34527;45.618;5.130;2024-01-15T09:07:27;68.53;;;38.67;;
48727;SDS011;34527;45.618;5.130;2024-01-15T09:09:52;61.90;;;36.90;;
48727;SDS011;34527;45.618;5.130;2024-01-15T09:12:18;64.90;;;37.95;;
48727;SDS011;34527;45.618;5.130;2024-01-15T09:14:46;68.50;;;38.65;;
48727;SDS011;34527;45.618;5.130;2024-01-15T09:17:12;65.53;;;37.30;;
48727;SDS011;34527;45.618;5.130;2024-01-15T09:19:38;66.50;;;39.78;;
48727;SDS011;34527;45.618;5.130;2024-01-15T09:22:06;74.93;;;40.83;;
48727;SDS011;34527;45.618;5.130;2024-01-15T09:24:32;67.28;;;40.05;;
48727;SDS011;34527;45.618;5.130;2024-01-15T09:26:58;65.60;;;38.47;;
48727;SDS011;34527;45.618;5.130;2024-01-15T09:29:23;68.93;;;41.38;;
48727;SDS011;34527;45.618;5.130;2024-01-15T09:31:49;67.18;;;39.05;;
48727;SDS011;34527;45.618;5.130;2024-01-15T09:34:15;66.10;;;39.50;;
48727;SDS011;34527;45.618;5.130;2024-01-15T09:36:42;73.75;;;41.35;;
48727;SDS011;34527;45.618;5.130;2024-01-15T09:39:10;70.13;;;40.22;;
48727;SDS011;34527;45.618;5.130;2024-01-15T09:41:36;73.20;;;39.80;;
48727;SDS011;34527;45.618;5.130;2024-01-15T09:44:03;69.43;;;37.28;;
48727;SDS011;34527;45.618;5.130;2024-01-15T09:46:29;63.95;;;38.58;;
48727;SDS011;34527;45.618;5.130;2024-01-15T09:48:57;60.45;;;36.67;;
48727;SDS011;34527;45.618;5.130;2024-01-15T09:51:23;59.92;;;37.08;;
48727;SDS011;34527;45.618;5.130;2024-01-15T09:53:49;63.65;;;37.30;;
48727;SDS011;34527;45.618;5.130;2024-01-15T09:56:15;64.60;;;36.97;;
48727;SDS011;34527;45.618;5.130;2024-01-15T09:58:41;66.68;;;37.88;;
48727;SDS011;34527;45.618;5.130;2024-01-15T10:01:08;64.60;;;38.35;;
48727;SDS011;34527;45.618;5.130;2024-01-15T10:03:34;65.90;;;37.67;;
48727;SDS011;34527;45.618;5.130;2024-01-15T10:06:00;70.43;;;38.55;;
48727;SDS011;34527;45.618;5.130;2024-01-15T10:08:27;66.63;;;39.28;;
48727;SDS011;34527;45.618;5.130;2024-01-15T10:10:53;65.93;;;37.47;;
48727;SDS011;34527;45.618;5.130;2024-01-15T10:13:19;65.95;;;38.20;;
48727;SDS011;34527;45.618;5.130;2024-01-15T10:15:46;66.55;;;38.22;;
48727;SDS011;34527;45.618;5.130;2024-01-15T10:18:14;64.45;;;36.78;;
48727;SDS011;34527;45.618;5.130;2024-01-15T10:20:40;65.95;;;35.67;;
48727;SDS011;34527;45.618;5.130;2024-01-15T10:23:07;65.75;;;34.97;;
48727;SDS011;34527;45.618;5.130;2024-01-15T10:25:33;57.03;;;33.78;;
48727;SDS011;34527;45.618;5.130;2024-01-15T10:28:01;58.28;;;33.30;;
48727;SDS011;34527;45.618;5.130;2024-01-15T10:30:28;51.25;;;30.33;;
48727;SDS011;34527;45.618;5.130;2024-01-15T10:32:58;53.80;;;30.77;;
48727;SDS011;34527;45.618;5.130;2024-01-15T10:35:34;50.47;;;29.55;;
48727;SDS011;34527;45.618;5.130;2024-01-15T10:38:00;46.20;;;29.08;;
48727;SDS011;34527;45.618;5.130;2024-01-15T10:40:26;46.15;;;28.00;;
48727;SDS011;34527;45.618;5.130;2024-01-15T10:42:52;48.42;;;28.75;;
48727;SDS011;34527;45.618;5.130;2024-01-15T10:45:18;46.97;;;29.25;;
48727;SDS011;34527;45.618;5.130;2024-01-15T10:47:44;48.05;;;29.35;;
48727;SDS011;34527;45.618;5.130;2024-01-15T10:50:11;48.95;;;29.50;;
48727;SDS011;34527;45.618;5.130;2024-01-15T10:52:37;50.45;;;29.30;;
48727;SDS011;34527;45.618;5.130;2024-01-15T10:55:06;55.53;;;32.70;;
48727;SDS011;34527;45.618;5.130;2024-01-15T10:57:33;52.55;;;33.10;;
48727;SDS011;34527;45.618;5.130;2024-01-15T11:00:00;59.03;;;35.03;;
48727;SDS011;34527;45.618;5.130;2024-01-15T11:02:29;51.30;;;32.53;;
48727;SDS011;34527;45.618;5.130;2024-01-15T11:04:55;50.58;;;32.17;;
48727;SDS011;34527;45.618;5.130;2024-01-15T11:07:21;50.15;;;30.92;;
48727;SDS011;34527;45.618;5.130;2024-01-15T11:09:48;52.13;;;30.90;;
48727;SDS011;34527;45.618;5.130;2024-01-15T11:12:15;52.92;;;31.73;;
48727;SDS011;34527;45.618;5.130;2024-01-15T11:14:46;61.38;;;32.90;;
48727;SDS011;34527;45.618;5.130;2024-01-15T11:17:15;53.97;;;33.10;;
48727;SDS011;34527;45.618;5.130;2024-01-15T11:19:43;60.33;;;33.45;;
48727;SDS011;34527;45.618;5.130;2024-01-15T11:22:11;57.60;;;33.88;;
48727;SDS011;34527;45.618;5.130;2024-01-15T11:25:02;57.13;;;34.38;;
48727;SDS011;34527;45.618;5.130;2024-01-15T11:27:50;53.78;;;32.17;;
48727;SDS011;34527;45.618;5.130;2024-01-15T11:30:17;61.35;;;30.25;;
48727;SDS011;34527;45.618;5.130;2024-01-15T11:32:45;59.65;;;31.42;;
48727;SDS011;34527;45.618;5.130;2024-01-15T11:35:11;54.13;;;32.80;;
48727;SDS011;34527;45.618;5.130;2024-01-15T11:40:24;59.63;;;32.50;;
48727;SDS011;34527;45.618;5.130;2024-01-15T11:43:03;54.17;;;33.28;;
48727;SDS011;34527;45.618;5.130;2024-01-15T11:45:30;56.30;;;32.25;;
48727;SDS011;34527;45.618;5.130;2024-01-15T11:48:12;67.40;;;35.20;;
48727;SDS011;34527;45.618;5.130;2024-01-15T11:50:42;54.83;;;31.85;;
48727;SDS011;34527;45.618;5.130;2024-01-15T11:53:21;56.53;;;31.88;;
48727;SDS011;34527;45.618;5.130;2024-01-15T11:55:49;47.30;;;26.70;;
48727;SDS011;34527;45.618;5.130;2024-01-15T11:58:17;49.72;;;29.13;;
48727;SDS011;34527;45.618;5.130;2024-01-15T12:00:43;46.92;;;27.98;;
48727;SDS011;34527;45.618;5.130;2024-01-15T12:03:10;53.30;;;28.95;;
48727;SDS011;34527;45.618;5.130;2024-01-15T12:05:39;53.00;;;26.98;;
48727;SDS011;34527;45.618;5.130;2024-01-15T12:08:04;47.65;;;27.30;;
48727;SDS011;34527;45.618;5.130;2024-01-15T12:10:37;50.35;;;28.58;;
48727;SDS011;34527;45.618;5.130;2024-01-15T12:15:35;52.78;;;29.77;;
48727;SDS011;34527;45.618;5.130;2024-01-15T12:18:01;49.60;;;29.67;;
48727;SDS011;34527;45.618;5.130;2024-01-15T12:20:28;54.17;;;28.25;;
48727;SDS011;34527;45.618;5.130;2024-01-15T12:22:55;51.72;;;30.20;;
48727;SDS011;34527;45.618;5.130;2024-01-15T12:25:21;55.33;;;31.10;;
48727;SDS011;34527;45.618;5.130;2024-01-15T12:27:48;55.65;;;32.72;;
48727;SDS011;34527;45.618;5.130;2024-01-15T12:30:14;53.65;;;29.80;;
48727;SDS011;34527;45.618;5.130;2024-01-15T12:32:43;46.15;;;26.63;;
48727;SDS011;34527;45.618;5.130;2024-01-15T12:35:12;46.47;;;27.42;;
48727;SDS011;34527;45.618;5.130;2024-01-15T12:37:42;50.65;;;29.08;;
48727;SDS011;34527;45.618;5.130;2024-01-15T12:40:09;48.50;;;29.00;;
48727;SDS011;34527;45.618;5.130;2024-01-15T12:42:36;45.33;;;27.10;;
48727;SDS011;34527;45.618;5.130;2024-01-15T12:45:03;44.03;;;24.85;;
48727;SDS011;34527;45.618;5.130;2024-01-15T12:47:30;49.33;;;27.10;;
48727;SDS011;34527;45.618;5.130;2024-01-15T12:49:57;48.17;;;27.58;;
48727;SDS011;34527;45.618;5.130;2024-01-15T12:52:26;45.60;;;26.10;;
48727;SDS011;34527;45.618;5.130;2024-01-15T12:54:52;40.60;;;25.60;;
48727;SDS011;34527;45.618;5.130;2024-01-15T12:57:17;42.58;;;24.52;;
48727;SDS011;34527;45.618;5.130;2024-01-15T12:59:43;35.70;;;23.10;;
48727;SDS011;34527;45.618;5.130;2024-01-15T13:02:10;45.55;;;25.92;;
48727;SDS011;34527;45.618;5.130;2024-01-15T13:04:39;44.55;;;26.20;;
48727;SDS011;34527;45.618;5.130;2024-01-15T13:07:05;45.53;;;26.80;;
48727;SDS011;34527;45.618;5.130;2024-01-15T13:09:32;46.17;;;27.58;;
48727;SDS011;34527;45.618;5.130;2024-01-15T13:11:58;50.88;;;28.58;;
48727;SDS011;34527;45.618;5.130;2024-01-15T13:14:24;52.00;;;29.25;;
48727;SDS011;34527;45.618;5.130;2024-01-15T13:16:50;46.97;;;27.20;;
48727;SDS011;34527;45.618;5.130;2024-01-15T13:19:16;48.90;;;29.10;;
48727;SDS011;34527;45.618;5.130;2024-01-15T13:21:42;50.47;;;26.95;;
48727;SDS011;34527;45.618;5.130;2024-01-15T13:24:07;46.47;;;27.63;;
48727;SDS011;34527;45.618;5.130;2024-01-15T13:26:33;46.00;;;27.02;;
48727;SDS011;34527;45.618;5.130;2024-01-15T13:29:00;43.85;;;25.50;;
48727;SDS011;34527;45.618;5.130;2024-01-15T13:31:26;47.78;;;25.55;;
48727;SDS011;34527;45.618;5.130;2024-01-15T13:33:53;44.08;;;26.70;;
48727;SDS011;34527;45.618;5.130;2024-01-15T13:36:20;41.58;;;25.73;;
48727;SDS011;34527;45.618;5.130;2024-01-15T13:38:48;42.42;;;26.17;;
48727;SDS011;34527;45.618;5.130;2024-01-15T13:41:18;45.60;;;27.25;;
48727;SDS011;34527;45.618;5.130;2024-01-15T13:43:48;47.38;;;27.10;;
48727;SDS011;34527;45.618;5.130;2024-01-15T13:46:15;42.45;;;26.50;;
48727;SDS011;34527;45.618;5.130;2024-01-15T13:48:42;47.53;;;27.52;;
48727;SDS011;34527;45.618;5.130;2024-01-15T13:51:08;44.30;;;27.35;;
48727;SDS011;34527;45.618;5.130;2024-01-15T13:53:33;44.63;;;26.30;;
48727;SDS011;34527;45.618;5.130;2024-01-15T13:55:59;47.55;;;26.13;;
48727;SDS011;34527;45.618;5.130;2024-01-15T13:58:24;43.97;;;26.73;;
48727;SDS011;34527;45.618;5.130;2024-01-15T14:00:51;45.50;;;27.38;;
48727;SDS011;34527;45.618;5.130;2024-01-15T14:03:17;45.47;;;27.48;;
48727;SDS011;34527;45.618;5.130;2024-01-15T14:05:44;46.72;;;26.45;;
48727;SDS011;34527;45.618;5.130;2024-01-15T14:08:09;44.83;;;26.73;;
48727;SDS011;34527;45.618;5.130;2024-01-15T14:10:35;43.17;;;26.25;;
48727;SDS011;34527;45.618;5.130;2024-01-15T14:13:02;44.60;;;26.52;;
48727;SDS011;34527;45.618;5.130;2024-01-15T14:15:28;47.05;;;26.38;;
48727;SDS011;34527;45.618;5.130;2024-01-15T14:17:54;43.85;;;26.00;;
48727;SDS011;34527;45.618;5.130;2024-01-15T14:20:19;45.00;;;25.92;;
48727;SDS011;34527;45.618;5.130;2024-01-15T14:22:45;45.25;;;25.88;;
48727;SDS011;34527;45.618;5.130;2024-01-15T14:25:12;42.78;;;25.50;;